sensor_id;sensor_type;location;lat;lon;timestamp;temperature;humidity
9977;DHT22;5029;47.378;11.776;2023-04-01T00:04:53;4.20;99.90
9977;DHT22;5029;47.378;11.776;2023-04-01T00:09:56;4.10;99.90
9977;DHT22;5029;47.378;11.776;2023-04-01T00:15:02;4.20;99.90
9977;DHT22;5029;47.378;11.776;2023-04-01T00:20:07;4.10;99.90
9977;DHT22;5029;47.378;11.776;2023-04-01T00:25:11;4.10;99.90
9977;DHT22;5029;47.378;11.776;2023-04-01T00:30:17;4.20;99.90
9977;DHT22;5029;47.378;11.776;2023-04-01T00:35:20;4.10;99.90
9977;DHT22;5029;47.378;11.776;2023-04-01T00:40:31;3.90;99.90
9977;DHT22;5029;47.378;11.776;2023-04-01T00:45:38;4.00;99.90
9977;DHT22;5029;47.378;11.776;2023-04-01T00:50:44;3.90;99.90
9977;DHT22;5029;47.378;11.776;2023-04-01T00:55:53;3.70;99.90
9977;DHT22;5029;47.378;11.776;2023-04-01T01:00:59;3.80;99.90
9977;DHT22;5029;47.378;11.776;2023-04-01T01:06:15;3.80;99.90
9977;DHT22;5029;47.378;11.776;2023-04-01T01:11:30;3.50;99.90
9977;DHT22;5029;47.378;11.776;2023-04-01T01:16:48;3.50;99.90
9977;DHT22;5029;47.378;11.776;2023-04-01T01:22:06;3.60;99.90
9977;DHT22;5029;47.378;11.776;2023-04-01T01:27:16;3.40;99.90
9977;DHT22;5029;47.378;11.776;2023-04-01T01:32:38;3.30;99.90
9977;DHT22;5029;47.378;11.776;2023-04-01T01:37:51;3.30;99.90
9977;DHT22;5029;47.378;11.776;2023-04-01T01:42:59;3.30;99.90
9977;DHT22;5029;47.378;11.776;2023-04-01T01:48:04;3.50;99.90
9977;DHT22;5029;47.378;11.776;2023-04-01T01:53:11;3.60;99.90
9977;DHT22;5029;47.378;11.776;2023-04-01T01:58:19;3.20;99.90
9977;DHT22;5029;47.378;11.776;2023-04-01T02:03:24;3.40;99.90
9977;DHT22;5029;47.378;11.776;2023-04-01T02:08:34;3.40;99.90
9977;DHT22;5029;47.378;11.776;2023-04-01T02:13:43;3.60;99.90
9977;DHT22;5029;47.378;11.776;2023-04-01T02:18:49;3.50;99.90
9977;DHT22;5029;47.378;11.776;2023-04-01T02:23:56;3.30;99.90
9977;DHT22;5029;47.378;11.776;2023-04-01T02:29:01;3.30;99.90
9977;DHT22;5029;47.378;11.776;2023-04-01T02:34:05;3.50;99.90
9977;DHT22;5029;47.378;11.776;2023-04-01T02:39:10;3.40;99.90
9977;DHT22;5029;47.378;11.776;2023-04-01T02:44:15;3.30;99.90
9977;DHT22;5029;47.378;11.776;2023-04-01T02:49:18;3.50;99.90
9977;DHT22;5029;47.378;11.776;2023-04-01T02:54:23;3.20;99.90
9977;DHT22;5029;47.378;11.776;2023-04-01T02:59:26;3.30;99.90
9977;DHT22;5029;47.378;11.776;2023-04-01T03:04:30;3.20;99.90
9977;DHT22;5029;47.378;11.776;2023-04-01T03:09:34;3.30;99.90
9977;DHT22;5029;47.378;11.776;2023-04-01T03:14:38;3.30;99.90
9977;DHT22;5029;47.378;11.776;2023-04-01T03:19:41;3.30;99.90
9977;DHT22;5029;47.378;11.776;2023-04-01T03:24:46;3.40;99.90
9977;DHT22;5029;47.378;11.776;2023-04-01T03:29:50;3.20;99.90
9977;DHT22;5029;47.378;11.776;2023-04-01T03:34:53;3.30;99.90
9977;DHT22;5029;47.378;11.776;2023-04-01T03:39:58;3.40;99.90
9977;DHT22;5029;47.378;11.776;2023-04-01T03:45:01;3.50;99.90
9977;DHT22;5029;47.378;11.776;2023-04-01T03:50:06;3.50;99.90
9977;DHT22;5029;47.378;11.776;2023-04-01T03:55:12;3.20;99.90
9977;DHT22;5029;47.378;11.776;2023-04-01T04:00:15;3.30;99.90
9977;DHT22;5029;47.378;11.776;2023-04-01T04:05:18;3.40;99.90
9977;DHT22;5029;47.378;11.776;2023-04-01T04:10:23;3.40;99.90
9977;DHT22;5029;47.378;11.776;2023-04-01T04:15:27;3.20;99.90
9977;DHT22;5029;47.378;11.776;2023-04-01T04:20:30;3.40;99.90
9977;DHT22;5029;47.378;11.776;2023-04-01T04:25:35;3.50;99.90
9977;DHT22;5029;47.378;11.776;2023-04-01T04:30:38;3.40;99.90
9977;DHT22;5029;47.378;11.776;2023-04-01T04:35:41;3.40;99.90
9977;DHT22;5029;47.378;11.776;2023-04-01T04:40:46;3.30;99.90
9977;DHT22;5029;47.378;11.776;2023-04-01T04:45:49;3.30;99.90
9977;DHT22;5029;47.378;11.776;2023-04-01T04:50:53;3.40;99.90
9977;DHT22;5029;47.378;11.776;2023-04-01T04:55:57;3.40;99.90
9977;DHT22;5029;47.378;11.776;2023-04-01T05:01:06;3.40;99.90
9977;DHT22;5029;47.378;11.776;2023-04-01T05:06:12;3.20;99.90
9977;DHT22;5029;47.378;11.776;2023-04-01T05:11:18;3.20;99.90
9977;DHT22;5029;47.378;11.776;2023-04-01T05:16:22;3.20;99.90
9977;DHT22;5029;47.378;11.776;2023-04-01T05:21:25;3.10;99.90
9977;DHT22;5029;47.378;11.776;2023-04-01T05:26:30;3.10;99.90
9977;DHT22;5029;47.378;11.776;2023-04-01T05:31:34;3.20;99.90
9977;DHT22;5029;47.378;11.776;2023-04-01T05:36:37;3.20;99.90
9977;DHT22;5029;47.378;11.776;2023-04-01T05:41:43;3.20;99.90
9977;DHT22;5029;47.378;11.776;2023-04-01T05:46:47;3.30;99.90
9977;DHT22;5029;47.378;11.776;2023-04-01T05:51:50;3.40;99.90
9977;DHT22;5029;47.378;11.776;2023-04-01T05:56:55;3.20;99.90
9977;DHT22;5029;47.378;11.776;2023-04-01T06:01:58;3.40;99.90
9977;DHT22;5029;47.378;11.776;2023-04-01T06:07:09;3.40;99.90
9977;DHT22;5029;47.378;11.776;2023-04-01T06:12:36;3.60;99.90
9977;DHT22;5029;47.378;11.776;2023-04-01T06:17:52;3.70;99.90
9977;DHT22;5029;47.378;11.776;2023-04-01T06:28:42;3.60;99.90
9977;DHT22;5029;47.378;11.776;2023-04-01T06:34:00;3.80;99.90
9977;DHT22;5029;47.378;11.776;2023-04-01T06:39:27;3.60;99.90
9977;DHT22;5029;47.378;11.776;2023-04-01T06:44:38;3.90;99.90
9977;DHT22;5029;47.378;11.776;2023-04-01T06:49:49;3.90;99.90
9977;DHT22;5029;47.378;11.776;2023-04-01T06:55:02;4.10;99.90
9977;DHT22;5029;47.378;11.776;2023-04-01T07:00:15;4.20;99.90
9977;DHT22;5029;47.378;11.776;2023-04-01T07:05:22;4.20;99.90
9977;DHT22;5029;47.378;11.776;2023-04-01T07:10:33;4.20;99.90
9977;DHT22;5029;47.378;11.776;2023-04-01T07:15:41;4.20;99.90
9977;DHT22;5029;47.378;11.776;2023-04-01T07:20:46;4.40;99.90
9977;DHT22;5029;47.378;11.776;2023-04-01T07:25:52;4.40;99.90
9977;DHT22;5029;47.378;11.776;2023-04-01T07:31:07;4.30;99.90
9977;DHT22;5029;47.378;11.776;2023-04-01T07:36:18;4.10;99.90
9977;DHT22;5029;47.378;11.776;2023-04-01T07:41:30;4.50;99.90
9977;DHT22;5029;47.378;11.776;2023-04-01T07:46:55;4.80;99.90
9977;DHT22;5029;47.378;11.776;2023-04-01T07:52:03;4.90;99.90
9977;DHT22;5029;47.378;11.776;2023-04-01T07:57:12;5.10;99.90
9977;DHT22;5029;47.378;11.776;2023-04-01T08:02:28;5.50;99.90
9977;DHT22;5029;47.378;11.776;2023-04-01T08:07:40;5.60;99.90
9977;DHT22;5029;47.378;11.776;2023-04-01T08:12:55;5.80;99.90
9977;DHT22;5029;47.378;11.776;2023-04-01T08:18:06;6.20;99.90
9977;DHT22;5029;47.378;11.776;2023-04-01T08:23:14;6.50;99.90
9977;DHT22;5029;47.378;11.776;2023-04-01T08:28:24;6.30;99.90
9977;DHT22;5029;47.378;11.776;2023-04-01T08:33:33;6.50;99.90
9977;DHT22;5029;47.378;11.776;2023-04-01T08:38:40;6.50;99.90
9977;DHT22;5029;47.378;11.776;2023-04-01T08:49:36;7.30;99.90
9977;DHT22;5029;47.378;11.776;2023-04-01T08:55:19;7.70;99.90
9977;DHT22;5029;47.378;11.776;2023-04-01T09:00:29;7.60;99.90
9977;DHT22;5029;47.378;11.776;2023-04-01T09:11:28;8.00;99.90
9977;DHT22;5029;47.378;11.776;2023-04-01T09:17:01;8.30;99.90
9977;DHT22;5029;47.378;11.776;2023-04-01T09:22:34;8.80;99.90
9977;DHT22;5029;47.378;11.776;2023-04-01T09:27:45;8.70;99.90
9977;DHT22;5029;47.378;11.776;2023-04-01T09:33:38;8.80;99.90
9977;DHT22;5029;47.378;11.776;2023-04-01T09:38:55;8.80;99.90
9977;DHT22;5029;47.378;11.776;2023-04-01T09:44:01;9.10;99.90
9977;DHT22;5029;47.378;11.776;2023-04-01T09:49:25;9.50;99.90
9977;DHT22;5029;47.378;11.776;2023-04-01T10:00:25;10.10;99.90
9977;DHT22;5029;47.378;11.776;2023-04-01T10:05:45;9.90;99.90
9977;DHT22;5029;47.378;11.776;2023-04-01T10:11:15;10.00;99.90
9977;DHT22;5029;47.378;11.776;2023-04-01T10:28:24;10.50;99.90
9977;DHT22;5029;47.378;11.776;2023-04-01T10:33:56;11.00;99.90
9977;DHT22;5029;47.378;11.776;2023-04-01T10:45:02;10.80;99.90
9977;DHT22;5029;47.378;11.776;2023-04-01T10:56:14;11.00;99.90
9977;DHT22;5029;47.378;11.776;2023-04-01T11:02:01;10.80;99.90
9977;DHT22;5029;47.378;11.776;2023-04-01T11:07:29;11.10;99.90
9977;DHT22;5029;47.378;11.776;2023-04-01T11:18:50;11.00;99.90
9977;DHT22;5029;47.378;11.776;2023-04-01T11:35:24;11.00;99.90
9977;DHT22;5029;47.378;11.776;2023-04-01T11:40:33;11.20;99.90
9977;DHT22;5029;47.378;11.776;2023-04-01T11:45:41;11.20;99.90
9977;DHT22;5029;47.378;11.776;2023-04-01T11:51:01;11.10;99.90
9977;DHT22;5029;47.378;11.776;2023-04-01T11:56:17;11.10;99.90
9977;DHT22;5029;47.378;11.776;2023-04-01T12:01:40;11.40;99.90
9977;DHT22;5029;47.378;11.776;2023-04-01T12:06:51;11.30;99.90
9977;DHT22;5029;47.378;11.776;2023-04-01T12:12:09;11.70;99.90
9977;DHT22;5029;47.378;11.776;2023-04-01T12:17:26;11.40;99.90
9977;DHT22;5029;47.378;11.776;2023-04-01T12:22:42;11.50;99.90
9977;DHT22;5029;47.378;11.776;2023-04-01T12:28:01;11.60;99.90
9977;DHT22;5029;47.378;11.776;2023-04-01T12:38:48;11.80;99.90
9977;DHT22;5029;47.378;11.776;2023-04-01T12:50:10;11.20;99.90
9977;DHT22;5029;47.378;11.776;2023-04-01T12:55:36;11.40;99.90
9977;DHT22;5029;47.378;11.776;2023-04-01T13:00:54;11.10;99.90
9977;DHT22;5029;47.378;11.776;2023-04-01T13:12:07;10.90;99.90
9977;DHT22;5029;47.378;11.776;2023-04-01T13:17:21;10.70;99.90
9977;DHT22;5029;47.378;11.776;2023-04-01T13:22:31;10.40;99.90
9977;DHT22;5029;47.378;11.776;2023-04-01T13:27:41;10.10;99.90
9977;DHT22;5029;47.378;11.776;2023-04-01T13:32:50;10.50;99.90
9977;DHT22;5029;47.378;11.776;2023-04-01T13:38:13;10.40;99.90
9977;DHT22;5029;47.378;11.776;2023-04-01T13:43:23;10.60;99.90
9977;DHT22;5029;47.378;11.776;2023-04-01T13:48:33;11.00;99.90
9977;DHT22;5029;47.378;11.776;2023-04-01T13:53:58;10.30;99.90
9977;DHT22;5029;47.378;11.776;2023-04-01T14:04:53;10.30;99.90
9977;DHT22;5029;47.378;11.776;2023-04-01T14:10:08;10.60;99.90
9977;DHT22;5029;47.378;11.776;2023-04-01T14:15:29;10.10;99.90
9977;DHT22;5029;47.378;11.776;2023-04-01T14:20:38;9.90;99.90
9977;DHT22;5029;47.378;11.776;2023-04-01T14:25:55;10.00;99.90
9977;DHT22;5029;47.378;11.776;2023-04-01T14:31:27;10.00;99.90
9977;DHT22;5029;47.378;11.776;2023-04-01T14:36:55;9.70;99.90
9977;DHT22;5029;47.378;11.776;2023-04-01T14:42:19;9.60;99.90
9977;DHT22;5029;47.378;11.776;2023-04-01T14:47:39;9.80;99.90
9977;DHT22;5029;47.378;11.776;2023-04-01T14:52:55;10.00;99.90
9977;DHT22;5029;47.378;11.776;2023-04-01T14:58:08;9.80;99.90
9977;DHT22;5029;47.378;11.776;2023-04-01T15:03:18;9.90;99.90
9977;DHT22;5029;47.378;11.776;2023-04-01T15:08:24;10.00;99.90
9977;DHT22;5029;47.378;11.776;2023-04-01T15:13:51;9.90;99.90
9977;DHT22;5029;47.378;11.776;2023-04-01T15:19:04;9.90;99.90
9977;DHT22;5029;47.378;11.776;2023-04-01T15:24:15;10.00;99.90
9977;DHT22;5029;47.378;11.776;2023-04-01T15:29:47;10.00;99.90
9977;DHT22;5029;47.378;11.776;2023-04-01T15:34:59;9.90;99.90
9977;DHT22;5029;47.378;11.776;2023-04-01T15:40:15;10.10;99.90
9977;DHT22;5029;47.378;11.776;2023-04-01T15:45:33;10.10;99.90
9977;DHT22;5029;47.378;11.776;2023-04-01T15:50:53;10.10;99.90
9977;DHT22;5029;47.378;11.776;2023-04-01T15:56:00;10.00;99.90
9977;DHT22;5029;47.378;11.776;2023-04-01T16:01:24;9.70;99.90
9977;DHT22;5029;47.378;11.776;2023-04-01T16:07:01;9.60;99.90
9977;DHT22;5029;47.378;11.776;2023-04-01T16:12:14;9.60;99.90
9977;DHT22;5029;47.378;11.776;2023-04-01T16:17:31;9.50;99.90
9977;DHT22;5029;47.378;11.776;2023-04-01T16:22:40;9.40;99.90
9977;DHT22;5029;47.378;11.776;2023-04-01T16:27:53;9.30;99.90
9977;DHT22;5029;47.378;11.776;2023-04-01T16:33:02;9.00;99.90
9977;DHT22;5029;47.378;11.776;2023-04-01T16:38:16;8.80;99.90
9977;DHT22;5029;47.378;11.776;2023-04-01T16:43:26;8.60;99.90
9977;DHT22;5029;47.378;11.776;2023-04-01T16:48:52;8.50;99.90
9977;DHT22;5029;47.378;11.776;2023-04-01T16:54:06;8.50;99.90
9977;DHT22;5029;47.378;11.776;2023-04-01T16:59:17;8.40;99.90
9977;DHT22;5029;47.378;11.776;2023-04-01T17:04:32;8.10;99.90
9977;DHT22;5029;47.378;11.776;2023-04-01T17:15:17;8.30;99.90
9977;DHT22;5029;47.378;11.776;2023-04-01T17:20:35;8.00;99.90
9977;DHT22;5029;47.378;11.776;2023-04-01T17:26:01;7.90;99.90
9977;DHT22;5029;47.378;11.776;2023-04-01T17:31:12;7.80;99.90
9977;DHT22;5029;47.378;11.776;2023-04-01T17:36:29;7.80;99.90
9977;DHT22;5029;47.378;11.776;2023-04-01T17:41:44;7.70;99.90
9977;DHT22;5029;47.378;11.776;2023-04-01T17:47:18;7.70;99.90
9977;DHT22;5029;47.378;11.776;2023-04-01T17:52:32;7.70;99.90
9977;DHT22;5029;47.378;11.776;2023-04-01T17:57:48;7.40;99.90
9977;DHT22;5029;47.378;11.776;2023-04-01T18:03:04;7.40;99.90
9977;DHT22;5029;47.378;11.776;2023-04-01T18:08:26;7.40;99.90
9977;DHT22;5029;47.378;11.776;2023-04-01T18:14:01;7.30;99.90
9977;DHT22;5029;47.378;11.776;2023-04-01T18:19:13;7.40;99.90
9977;DHT22;5029;47.378;11.776;2023-04-01T18:24:26;7.30;99.90
9977;DHT22;5029;47.378;11.776;2023-04-01T18:29:40;7.20;99.90
9977;DHT22;5029;47.378;11.776;2023-04-01T18:34:55;7.20;99.90
9977;DHT22;5029;47.378;11.776;2023-04-01T18:40:15;7.10;99.90
9977;DHT22;5029;47.378;11.776;2023-04-01T18:45:27;7.20;99.90
9977;DHT22;5029;47.378;11.776;2023-04-01T18:50:37;7.10;99.90
9977;DHT22;5029;47.378;11.776;2023-04-01T18:55:47;7.00;99.90
9977;DHT22;5029;47.378;11.776;2023-04-01T19:01:12;7.10;99.90
9977;DHT22;5029;47.378;11.776;2023-04-01T19:06:22;7.00;99.90
9977;DHT22;5029;47.378;11.776;2023-04-01T19:11:36;6.90;99.90
9977;DHT22;5029;47.378;11.776;2023-04-01T19:16:51;6.90;99.90
9977;DHT22;5029;47.378;11.776;2023-04-01T19:22:09;6.70;99.90
9977;DHT22;5029;47.378;11.776;2023-04-01T19:27:24;6.70;99.90
9977;DHT22;5029;47.378;11.776;2023-04-01T19:32:45;6.60;99.90
9977;DHT22;5029;47.378;11.776;2023-04-01T19:37:54;6.40;99.90
9977;DHT22;5029;47.378;11.776;2023-04-01T19:43:06;6.40;99.90
9977;DHT22;5029;47.378;11.776;2023-04-01T19:48:29;6.40;99.90
9977;DHT22;5029;47.378;11.776;2023-04-01T19:53:43;6.30;99.90
9977;DHT22;5029;47.378;11.776;2023-04-01T19:58:54;6.50;99.90
9977;DHT22;5029;47.378;11.776;2023-04-01T20:04:04;6.40;99.90
9977;DHT22;5029;47.378;11.776;2023-04-01T20:09:38;6.20;99.90
9977;DHT22;5029;47.378;11.776;2023-04-01T20:14:51;6.10;99.90
9977;DHT22;5029;47.378;11.776;2023-04-01T20:20:00;5.90;99.90
9977;DHT22;5029;47.378;11.776;2023-04-01T20:25:13;5.70;99.90
9977;DHT22;5029;47.378;11.776;2023-04-01T20:30:44;5.80;99.90
9977;DHT22;5029;47.378;11.776;2023-04-01T20:36:04;5.90;99.90
9977;DHT22;5029;47.378;11.776;2023-04-01T20:41:16;5.70;99.90
9977;DHT22;5029;47.378;11.776;2023-04-01T20:46:28;5.60;99.90
9977;DHT22;5029;47.378;11.776;2023-04-01T20:51:38;5.40;99.90
9977;DHT22;5029;47.378;11.776;2023-04-01T20:56:51;5.50;99.90
9977;DHT22;5029;47.378;11.776;2023-04-01T21:02:13;5.20;99.90
9977;DHT22;5029;47.378;11.776;2023-04-01T21:07:29;5.20;99.90
9977;DHT22;5029;47.378;11.776;2023-04-01T21:12:43;5.30;99.90
9977;DHT22;5029;47.378;11.776;2023-04-01T21:18:00;5.00;99.90
9977;DHT22;5029;47.378;11.776;2023-04-01T21:23:15;4.80;99.90
9977;DHT22;5029;47.378;11.776;2023-04-01T21:28:33;4.70;99.90
9977;DHT22;5029;47.378;11.776;2023-04-01T21:34:07;4.70;99.90
9977;DHT22;5029;47.378;11.776;2023-04-01T21:39:42;4.70;99.90
9977;DHT22;5029;47.378;11.776;2023-04-01T21:45:03;4.80;99.90
9977;DHT22;5029;47.378;11.776;2023-04-01T22:07:35;4.90;99.90
9977;DHT22;5029;47.378;11.776;2023-04-01T22:12:46;4.70;99.90
9977;DHT22;5029;47.378;11.776;2023-04-01T22:17:54;4.80;99.90
9977;DHT22;5029;47.378;11.776;2023-04-01T22:23:15;4.90;99.90
9977;DHT22;5029;47.378;11.776;2023-04-01T22:28:29;4.90;99.90
9977;DHT22;5029;47.378;11.776;2023-04-01T22:33:38;4.70;99.90
9977;DHT22;5029;47.378;11.776;2023-04-01T22:39:02;4.70;99.90
9977;DHT22;5029;47.378;11.776;2023-04-01T22:44:17;4.80;99.90
9977;DHT22;5029;47.378;11.776;2023-04-01T22:49:27;5.00;99.90
9977;DHT22;5029;47.378;11.776;2023-04-01T22:54:36;4.60;99.90
9977;DHT22;5029;47.378;11.776;2023-04-01T22:59:46;4.60;99.90
9977;DHT22;5029;47.378;11.776;2023-04-01T23:04:57;4.60;99.90
9977;DHT22;5029;47.378;11.776;2023-04-01T23:10:07;4.60;99.90
9977;DHT22;5029;47.378;11.776;2023-04-01T23:15:15;4.70;99.90
9977;DHT22;5029;47.378;11.776;2023-04-01T23:20:32;4.60;99.90
9977;DHT22;5029;47.378;11.776;2023-04-01T23:25:45;4.40;99.90
9977;DHT22;5029;47.378;11.776;2023-04-01T23:30:51;4.50;99.90
9977;DHT22;5029;47.378;11.776;2023-04-01T23:35:57;4.60;99.90
9977;DHT22;5029;47.378;11.776;2023-04-01T23:41:16;4.40;99.90
9977;DHT22;5029;47.378;11.776;2023-04-01T23:46:21;4.30;99.90
9977;DHT22;5029;47.378;11.776;2023-04-01T23:51:26;4.40;99.90
9977;DHT22;5029;47.378;11.776;2023-04-01T23:56:43;4.70;99.90
